Time;durP1;ratioP1;P1;durP2;ratioP2;P2;SDS_P1;SDS_P2;PMS_P1;PMS_P2;Temp;Humidity;BMP_temperature;BMP_pressure;BME280_temperature;BME280_humidity;BME280_pressure;Samples;Min_cycle;Max_cycle;Signal;HPM_P1;HPM_P2
2023/10/19 00:01:33;;;;;;;17.30;11.30;;;7.10;99.90;;;;;;5206404;28;20206;-49
2023/10/19 00:04:07;;;;;;;17.33;10.77;;;7.10;99.90;;;;;;5205816;28;20282;-49
2023/10/19 00:06:40;;;;;;;23.40;12.47;;;7.10;99.90;;;;;;5205264;28;20589;-50
2023/10/19 00:09:11;;;;;;;23.63;12.30;;;7.10;99.90;;;;;;5207495;28;20454;-51
2023/10/19 00:11:42;;;;;;;21.57;12.93;;;7.10;99.90;;;;;;5206036;28;20537;-50
2023/10/19 00:14:16;;;;;;;21.70;12.40;;;7.10;99.90;;;;;;5205397;28;20508;-50
2023/10/19 00:20:28;;;;;;;19.77;11.90;;;7.10;99.90;;;;;;5160894;28;20442;-49
2023/10/19 00:22:49;;;;;;;17.53;11.70;;;7.00;99.90;;;;;;5199484;28;20438;-49
2023/10/19 00:25:23;;;;;;;22.10;12.53;;;7.00;99.90;;;;;;5203492;28;20488;-50
2023/10/19 00:27:53;;;;;;;18.50;12.53;;;7.00;99.90;;;;;;5202993;28;20215;-51
2023/10/19 00:30:29;;;;;;;20.67;11.73;;;7.00;99.90;;;;;;5201320;28;20430;-49
2023/10/19 00:33:03;;;;;;;23.23;13.07;;;7.00;99.90;;;;;;5204141;28;20171;-50
2023/10/19 00:35:57;;;;;;;18.00;11.83;;;6.90;99.90;;;;;;5200367;28;20429;-50
2023/10/19 00:38:39;;;;;;;21.77;12.90;;;6.90;99.90;;;;;;5201157;28;25129;-50
2023/10/19 00:43:44;;;;;;;25.57;12.03;;;6.90;99.90;;;;;;5205274;28;20441;-51
2023/10/19 00:46:20;;;;;;;20.53;12.73;;;6.90;99.90;;;;;;5203449;28;20654;-50
2023/10/19 00:48:53;;;;;;;20.47;11.30;;;6.90;99.90;;;;;;5201660;28;20516;-51
2023/10/19 00:54:14;;;;;;;19.00;12.80;;;6.80;99.90;;;;;;5203949;28;20414;-49
2023/10/19 00:56:51;;;;;;;29.80;13.60;;;6.80;99.90;;;;;;5201293;28;20457;-49
2023/10/19 00:59:23;;;;;;;22.50;12.23;;;6.80;99.90;;;;;;5203561;28;20438;-49
2023/10/19 01:01:57;;;;;;;19.73;12.23;;;6.80;99.90;;;;;;5203666;28;20775;-50
2023/10/19 01:04:32;;;;;;;22.43;13.60;;;6.80;99.90;;;;;;5204610;28;20437;-49
2023/10/19 01:07:15;;;;;;;24.03;13.20;;;6.80;99.90;;;;;;5202377;28;20477;-50
2023/10/19 01:09:46;;;;;;;24.37;13.73;;;6.80;99.90;;;;;;5204747;28;20520;-50
2023/10/19 01:12:33;;;;;;;25.87;14.50;;;6.70;99.90;;;;;;5205668;28;20949;-49
2023/10/19 01:15:17;;;;;;;19.77;12.30;;;6.70;99.90;;;;;;5203582;28;20430;-51
2023/10/19 01:17:56;;;;;;;19.93;14.10;;;6.70;99.90;;;;;;5204152;28;20969;-50
2023/10/19 01:34:00;;;;;;;18.67;13.10;;;6.60;99.90;;;;;;5198844;28;20442;-50
2023/10/19 01:36:44;;;;;;;21.23;13.43;;;6.70;99.90;;;;;;5204681;28;20524;-51
2023/10/19 01:39:15;;;;;;;22.30;13.30;;;6.70;99.90;;;;;;5208818;28;20436;-50
2023/10/19 01:41:46;;;;;;;20.97;13.27;;;6.70;99.90;;;;;;5202084;28;20808;-49
2023/10/19 01:44:20;;;;;;;22.60;13.20;;;6.60;99.90;;;;;;5201786;28;20282;-50
2023/10/19 01:46:51;;;;;;;20.97;13.60;;;6.70;99.90;;;;;;5216923;22;20829;-48
2023/10/19 01:49:28;;;;;;;24.30;14.40;;;6.70;99.90;;;;;;5213436;28;20459;-49
2023/10/19 01:51:58;;;;;;;20.60;13.47;;;6.70;99.90;;;;;;5185018;28;20604;-48
2023/10/19 01:54:29;;;;;;;18.63;13.07;;;6.70;99.90;;;;;;5186630;28;20426;-48
2023/10/19 01:57:00;;;;;;;21.57;13.50;;;6.70;99.90;;;;;;5200565;28;20560;-48
2023/10/19 01:59:34;;;;;;;26.23;14.20;;;6.70;99.90;;;;;;5176806;28;20197;-49
2023/10/19 02:02:05;;;;;;;26.40;14.23;;;6.70;99.90;;;;;;5184420;28;20445;-48
2023/10/19 02:04:35;;;;;;;21.33;13.23;;;6.70;99.90;;;;;;5183942;28;20439;-48
2023/10/19 02:07:12;;;;;;;24.40;14.17;;;6.70;99.90;;;;;;5184300;28;20673;-48
2023/10/19 02:09:43;;;;;;;19.07;13.17;;;6.70;99.90;;;;;;5184373;28;20263;-47
2023/10/19 02:12:13;;;;;;;20.87;14.80;;;6.70;99.90;;;;;;5185617;28;20518;-49
2023/10/19 02:14:44;;;;;;;23.47;13.53;;;6.70;99.90;;;;;;5185161;28;20189;-49
2023/10/19 02:17:15;;;;;;;20.03;13.80;;;6.70;99.90;;;;;;5180261;28;20298;-48
2023/10/19 02:19:46;;;;;;;20.13;13.00;;;6.70;99.90;;;;;;5203860;28;20238;-48
2023/10/19 02:22:17;;;;;;;23.83;14.03;;;6.70;99.90;;;;;;5189227;28;20439;-51
2023/10/19 02:24:47;;;;;;;24.83;13.70;;;6.70;99.90;;;;;;5188404;28;20279;-47
2023/10/19 02:27:18;;;;;;;23.77;14.30;;;6.70;99.90;;;;;;5189852;28;21104;-48
2023/10/19 02:29:50;;;;;;;26.53;14.90;;;6.80;99.90;;;;;;5189494;28;20183;-50
2023/10/19 02:32:21;;;;;;;24.70;14.00;;;6.80;99.90;;;;;;5190569;28;20191;-48
2023/10/19 02:34:51;;;;;;;24.87;14.90;;;6.80;99.90;;;;;;5188397;28;20435;-48
2023/10/19 02:37:22;;;;;;;24.23;14.33;;;6.80;99.90;;;;;;5189533;28;20294;-48
2023/10/19 02:39:55;;;;;;;23.47;13.30;;;6.80;99.90;;;;;;5189495;28;20648;-49
2023/10/19 02:42:26;;;;;;;23.47;14.27;;;6.80;99.90;;;;;;5187220;28;20442;-48
2023/10/19 02:44:56;;;;;;;26.63;14.50;;;6.80;99.90;;;;;;5171440;28;20184;-48
2023/10/19 02:47:28;;;;;;;30.03;15.13;;;6.90;99.90;;;;;;5190720;28;20208;-47
2023/10/19 02:49:59;;;;;;;22.10;14.03;;;6.80;99.90;;;;;;5188037;28;20438;-47
2023/10/19 02:52:30;;;;;;;27.47;14.60;;;6.80;99.90;;;;;;5189033;28;20958;-49
2023/10/19 02:55:04;;;;;;;20.50;13.63;;;6.90;99.90;;;;;;5189353;28;20183;-48
2023/10/19 02:57:35;;;;;;;21.50;14.27;;;6.80;99.90;;;;;;5187483;28;20208;-49
2023/10/19 03:00:14;;;;;;;22.87;14.37;;;6.80;99.90;;;;;;5188376;28;20443;-47
2023/10/19 03:02:44;;;;;;;29.27;13.53;;;6.80;99.90;;;;;;5170827;28;20206;-49
2023/10/19 03:05:17;;;;;;;22.37;14.03;;;6.80;99.90;;;;;;5185018;28;20451;-48
2023/10/19 03:07:48;;;;;;;24.20;13.17;;;6.90;99.90;;;;;;5187353;28;20703;-49
2023/10/19 03:10:34;;;;;;;32.60;15.33;;;6.90;99.90;;;;;;5188779;28;20437;-47
2023/10/19 03:13:05;;;;;;;24.03;14.40;;;6.80;99.90;;;;;;5199358;28;20439;-48
2023/10/19 03:15:39;;;;;;;20.33;14.00;;;6.80;99.90;;;;;;5189091;28;20469;-48
2023/10/19 03:18:10;;;;;;;23.10;13.17;;;6.80;99.90;;;;;;5188315;28;20813;-48
2023/10/19 03:20:41;;;;;;;25.80;14.67;;;6.80;99.90;;;;;;5189842;28;20442;-48
2023/10/19 03:23:14;;;;;;;27.60;15.97;;;6.80;99.90;;;;;;5189747;28;20191;-49
2023/10/19 03:25:49;;;;;;;21.03;13.53;;;6.80;99.90;;;;;;5190385;28;20531;-48
2023/10/19 03:28:20;;;;;;;31.57;14.77;;;6.80;99.90;;;;;;5187793;28;20549;-48
2023/10/19 03:30:50;;;;;;;30.10;15.30;;;6.80;99.90;;;;;;5166673;28;20800;-48
2023/10/19 03:33:26;;;;;;;32.90;16.33;;;6.80;99.90;;;;;;5187467;28;20612;-49
2023/10/19 03:35:57;;;;;;;27.30;15.50;;;6.80;99.90;;;;;;5187253;28;20652;-48
2023/10/19 03:38:31;;;;;;;20.77;13.87;;;6.80;99.90;;;;;;5186798;28;20467;-50
2023/10/19 03:41:06;;;;;;;20.90;13.07;;;6.80;99.90;;;;;;5188843;28;20186;-49
2023/10/19 03:43:40;;;;;;;32.80;15.60;;;6.90;99.90;;;;;;5198366;28;20791;-48
2023/10/19 03:46:52;;;;;;;21.60;14.37;;;6.80;99.90;;;;;;5186749;28;20553;-48
2023/10/19 03:49:12;;;;;;;31.50;15.80;;;6.80;99.90;;;;;;5188901;28;20462;-48
2023/10/19 03:54:51;;;;;;;26.97;15.63;;;6.80;99.90;;;;;;5185942;28;20415;-49
2023/10/19 03:57:23;;;;;;;29.97;15.10;;;6.80;99.90;;;;;;5167660;28;20458;-50
2023/10/19 03:59:57;;;;;;;24.27;15.10;;;6.80;99.90;;;;;;5186986;28;20220;-49
2023/10/19 04:02:35;;;;;;;29.70;16.63;;;6.80;99.90;;;;;;5186500;28;20543;-48
2023/10/19 04:05:09;;;;;;;28.27;14.93;;;6.70;99.90;;;;;;5186727;28;20446;-47
2023/10/19 04:07:41;;;;;;;23.80;15.03;;;6.70;99.90;;;;;;5187501;28;20561;-47
2023/10/19 04:10:29;;;;;;;28.47;15.67;;;6.70;99.90;;;;;;5187295;28;20443;-48
2023/10/19 04:13:00;;;;;;;29.90;14.70;;;6.70;99.90;;;;;;5184838;28;20489;-49
2023/10/19 04:15:33;;;;;;;24.23;15.80;;;6.70;99.90;;;;;;5185856;28;20427;-49
2023/10/19 04:18:10;;;;;;;27.20;15.53;;;6.70;99.90;;;;;;5202371;28;20532;-47
2023/10/19 04:23:28;;;;;;;24.90;15.53;;;6.70;99.90;;;;;;5187007;28;20452;-48
2023/10/19 04:26:01;;;;;;;23.63;15.40;;;6.60;99.90;;;;;;5200622;28;21011;-49
2023/10/19 04:28:49;;;;;;;32.93;16.33;;;6.60;99.90;;;;;;5186361;28;20556;-49
2023/10/19 04:31:23;;;;;;;22.10;14.87;;;6.60;99.90;;;;;;5171609;28;20537;-47
2023/10/19 04:33:54;;;;;;;30.03;16.90;;;6.60;99.90;;;;;;5181376;28;20430;-49
2023/10/19 04:36:25;;;;;;;26.13;15.53;;;6.60;99.90;;;;;;5185107;28;21079;-48
2023/10/19 04:38:57;;;;;;;28.03;15.27;;;6.60;99.90;;;;;;5182795;28;20204;-48
2023/10/19 04:41:27;;;;;;;28.97;16.20;;;6.60;99.90;;;;;;5186847;28;20529;-47
2023/10/19 04:43:58;;;;;;;27.30;16.30;;;6.60;99.90;;;;;;5182935;28;20448;-49
2023/10/19 04:46:29;;;;;;;27.97;17.10;;;6.60;99.90;;;;;;5186097;28;20207;-48
2023/10/19 04:49:00;;;;;;;31.00;15.77;;;6.60;99.90;;;;;;5194275;28;20204;-48
2023/10/19 04:51:30;;;;;;;24.00;14.90;;;6.60;99.90;;;;;;5174213;28;20184;-48
2023/10/19 04:54:02;;;;;;;29.20;16.07;;;6.60;99.90;;;;;;5184615;28;20239;-47
2023/10/19 04:56:32;;;;;;;29.53;15.87;;;6.60;99.90;;;;;;5202287;28;20247;-49
2023/10/19 04:59:04;;;;;;;33.97;16.37;;;6.50;99.90;;;;;;5185041;28;20462;-48
2023/10/19 05:01:35;;;;;;;30.00;17.77;;;6.50;99.90;;;;;;5171453;28;20198;-48
2023/10/19 05:04:05;;;;;;;32.60;16.07;;;6.40;99.90;;;;;;5185908;28;20525;-48
2023/10/19 05:06:37;;;;;;;25.27;16.03;;;6.50;99.90;;;;;;5184517;28;20250;-49
2023/10/19 05:09:09;;;;;;;27.13;16.10;;;6.40;99.90;;;;;;5187044;28;20265;-49
2023/10/19 05:11:40;;;;;;;28.17;17.10;;;6.40;99.90;;;;;;5184712;28;20482;-48
2023/10/19 05:14:10;;;;;;;30.17;16.77;;;6.40;99.90;;;;;;5185246;28;20474;-48
2023/10/19 05:16:41;;;;;;;32.17;17.63;;;6.40;99.90;;;;;;5182133;28;20191;-47
2023/10/19 05:19:11;;;;;;;32.67;17.00;;;6.50;99.90;;;;;;5201143;28;20187;-48
2023/10/19 05:21:43;;;;;;;28.23;17.57;;;6.40;99.90;;;;;;5185728;28;20211;-48
2023/10/19 05:24:14;;;;;;;34.23;17.57;;;6.50;99.90;;;;;;5201037;28;20478;-49
2023/10/19 05:26:46;;;;;;;46.73;17.07;;;6.40;99.90;;;;;;5201096;28;20831;-48
2023/10/19 05:29:16;;;;;;;31.47;16.90;;;6.40;99.90;;;;;;5185352;28;20180;-48
2023/10/19 05:31:53;;;;;;;25.93;16.50;;;6.40;99.90;;;;;;5185203;28;20520;-48
2023/10/19 05:34:26;;;;;;;29.40;18.00;;;6.30;99.90;;;;;;5186688;28;20186;-49
2023/10/19 05:36:59;;;;;;;25.23;16.90;;;6.40;99.90;;;;;;5185883;28;20977;-48
2023/10/19 05:39:31;;;;;;;29.27;18.00;;;6.40;99.90;;;;;;5186892;28;20477;-47
2023/10/19 05:42:01;;;;;;;36.43;19.23;;;6.30;99.90;;;;;;5184539;28;20516;-48
2023/10/19 05:44:32;;;;;;;38.20;18.37;;;6.30;99.90;;;;;;5184180;28;20455;-48
2023/10/19 05:47:03;;;;;;;35.00;18.80;;;6.30;99.90;;;;;;5185385;28;20210;-47
2023/10/19 05:49:35;;;;;;;25.87;17.73;;;6.30;99.90;;;;;;5185848;28;20462;-48
2023/10/19 05:52:05;;;;;;;32.33;19.07;;;6.30;99.90;;;;;;5168855;28;20887;-47
2023/10/19 05:54:37;;;;;;;31.33;18.70;;;6.40;99.90;;;;;;5185507;28;20470;-48
2023/10/19 05:57:09;;;;;;;43.27;20.37;;;6.30;99.90;;;;;;5186431;28;20278;-49
2023/10/19 05:59:40;;;;;;;32.60;19.10;;;6.20;99.90;;;;;;5186689;28;20454;-48
2023/10/19 06:02:11;;;;;;;33.37;19.40;;;6.20;99.90;;;;;;5184605;28;20651;-48
2023/10/19 06:04:42;;;;;;;28.10;17.97;;;6.20;99.90;;;;;;5185350;28;20485;-48
2023/10/19 06:07:12;;;;;;;30.23;19.03;;;6.30;99.90;;;;;;5183823;28;20211;-48
2023/10/19 06:09:43;;;;;;;36.70;18.90;;;6.20;99.90;;;;;;5184163;28;20287;-48
2023/10/19 06:12:13;;;;;;;27.10;17.30;;;6.20;99.90;;;;;;5184245;28;20207;-48
2023/10/19 06:14:44;;;;;;;32.47;20.50;;;6.20;99.90;;;;;;5185677;28;20620;-48
2023/10/19 06:17:19;;;;;;;35.03;19.50;;;6.10;99.90;;;;;;5180238;28;20208;-48
2023/10/19 06:19:49;;;;;;;35.03;21.40;;;6.10;99.90;;;;;;5183054;28;20187;-48
2023/10/19 06:22:20;;;;;;;38.03;22.07;;;6.10;99.90;;;;;;5185340;28;20453;-49
2023/10/19 06:24:52;;;;;;;33.87;21.10;;;6.00;99.90;;;;;;5185779;28;20188;-47
2023/10/19 06:27:23;;;;;;;38.80;21.37;;;6.00;99.90;;;;;;5181079;28;20312;-49
2023/10/19 06:29:54;;;;;;;35.30;21.20;;;6.00;99.90;;;;;;5180866;28;20844;-48
2023/10/19 06:32:24;;;;;;;37.13;20.37;;;5.90;99.90;;;;;;5184330;28;20449;-47
2023/10/19 06:34:55;;;;;;;36.30;20.83;;;5.90;99.90;;;;;;5183840;28;20184;-49
2023/10/19 06:37:27;;;;;;;35.83;21.10;;;5.90;99.90;;;;;;5183235;28;20688;-49
2023/10/19 06:39:57;;;;;;;38.97;21.10;;;5.90;99.90;;;;;;5182057;28;20187;-48
2023/10/19 06:42:28;;;;;;;39.60;20.77;;;5.80;99.90;;;;;;5167639;28;20450;-48
2023/10/19 06:44:59;;;;;;;43.97;23.63;;;5.80;99.90;;;;;;5181189;28;20203;-48
2023/10/19 06:47:30;;;;;;;35.20;20.83;;;5.80;99.90;;;;;;5200259;28;20683;-47
2023/10/19 06:50:02;;;;;;;36.63;20.67;;;5.80;99.90;;;;;;5184667;28;20186;-48
2023/10/19 06:52:35;;;;;;;35.77;21.03;;;5.90;99.90;;;;;;5184650;28;20437;-50
2023/10/19 06:55:13;;;;;;;34.83;20.73;;;5.90;99.90;;;;;;5186359;28;20927;-48
2023/10/19 06:57:44;;;;;;;39.43;20.17;;;5.90;99.90;;;;;;5184881;28;20457;-49
2023/10/19 07:00:19;;;;;;;34.57;20.50;;;5.90;99.90;;;;;;5183732;28;20809;-48
2023/10/19 07:02:50;;;;;;;40.90;21.07;;;6.00;99.90;;;;;;5195250;28;20449;-48
2023/10/19 07:05:23;;;;;;;34.90;21.60;;;6.00;99.90;;;;;;5182951;28;20526;-48
2023/10/19 07:07:56;;;;;;;39.40;19.60;;;6.00;99.90;;;;;;5188052;28;20549;-48
2023/10/19 07:10:29;;;;;;;31.77;19.83;;;6.10;99.90;;;;;;5186360;28;20886;-48
2023/10/19 07:13:00;;;;;;;39.60;20.60;;;6.10;99.90;;;;;;5189229;28;20426;-47
2023/10/19 07:15:31;;;;;;;45.60;21.07;;;6.10;99.90;;;;;;5187148;28;20431;-48
2023/10/19 07:18:02;;;;;;;29.90;19.13;;;6.10;99.90;;;;;;5188791;28;20879;-48
2023/10/19 07:20:35;;;;;;;35.70;21.17;;;6.10;99.90;;;;;;5185777;28;20958;-49
2023/10/19 07:23:18;;;;;;;37.93;21.30;;;6.20;99.90;;;;;;5187194;28;20223;-50
2023/10/19 07:25:54;;;;;;;31.10;19.40;;;6.10;99.90;;;;;;5195355;28;20450;-50
2023/10/19 07:28:26;;;;;;;40.97;21.80;;;6.20;99.90;;;;;;5188833;28;20450;-48
2023/10/19 07:30:57;;;;;;;35.90;19.13;;;6.20;99.90;;;;;;5187156;28;20943;-48
2023/10/19 07:33:28;;;;;;;33.43;18.93;;;6.20;99.90;;;;;;5188985;28;20590;-47
2023/10/19 07:36:06;;;;;;;33.40;17.80;;;6.30;99.90;;;;;;5187278;28;20522;-48
2023/10/19 07:38:38;;;;;;;35.50;20.30;;;6.40;99.90;;;;;;5188320;28;20199;-47
2023/10/19 07:41:09;;;;;;;31.50;18.47;;;6.40;99.90;;;;;;5187748;28;20445;-49
2023/10/19 07:43:40;;;;;;;30.53;19.67;;;6.40;99.90;;;;;;5188480;28;20423;-48
2023/10/19 07:46:11;;;;;;;34.63;18.90;;;6.50;99.90;;;;;;5184349;28;20564;-49
2023/10/19 07:48:42;;;;;;;31.90;18.77;;;6.50;99.90;;;;;;5209429;22;20227;-47
2023/10/19 07:51:13;;;;;;;32.70;19.33;;;6.50;99.90;;;;;;5206337;28;20817;-49
2023/10/19 07:53:44;;;;;;;27.70;17.43;;;6.60;99.90;;;;;;5207555;28;20508;-49
2023/10/19 07:56:14;;;;;;;25.17;17.03;;;6.60;99.90;;;;;;5205967;28;20633;-48
2023/10/19 07:58:48;;;;;;;30.83;18.03;;;6.60;99.90;;;;;;5207628;28;20205;-49
2023/10/19 08:01:19;;;;;;;27.00;17.33;;;6.70;99.90;;;;;;5207678;28;20191;-49
2023/10/19 08:03:51;;;;;;;35.30;18.27;;;6.70;99.90;;;;;;5203686;28;20977;-50
2023/10/19 08:06:22;;;;;;;37.43;19.50;;;6.80;99.90;;;;;;5205254;28;20205;-48
2023/10/19 08:08:53;;;;;;;29.73;18.57;;;6.70;99.90;;;;;;5205344;28;20818;-49
2023/10/19 08:11:24;;;;;;;33.27;18.93;;;6.70;99.90;;;;;;5206527;28;20183;-47
2023/10/19 08:13:55;;;;;;;33.17;18.70;;;6.80;99.90;;;;;;5206667;28;20215;-48
2023/10/19 08:16:27;;;;;;;34.07;19.80;;;6.70;99.90;;;;;;5211657;28;20480;-48
2023/10/19 08:18:58;;;;;;;31.60;18.33;;;6.80;99.90;;;;;;5205200;28;20457;-49
2023/10/19 08:21:28;;;;;;;29.47;19.07;;;6.80;99.90;;;;;;5207114;28;20445;-48
2023/10/19 08:24:03;;;;;;;35.93;18.30;;;6.80;99.90;;;;;;5209905;28;20270;-49
2023/10/19 08:26:33;;;;;;;29.87;17.70;;;6.80;99.90;;;;;;5205348;28;20585;-49
2023/10/19 08:29:11;;;;;;;35.63;19.00;;;6.80;99.90;;;;;;5205752;28;20455;-47
2023/10/19 08:31:44;;;;;;;34.20;18.03;;;6.90;99.90;;;;;;5208764;28;20585;-49
2023/10/19 08:34:15;;;;;;;38.30;19.10;;;6.90;99.90;;;;;;5209241;28;20767;-49
2023/10/19 08:36:46;;;;;;;27.13;17.50;;;6.90;99.90;;;;;;5204679;28;20807;-50
2023/10/19 08:39:17;;;;;;;30.20;16.97;;;7.00;99.90;;;;;;5210186;28;20461;-49
2023/10/19 08:41:53;;;;;;;31.10;17.33;;;7.00;99.90;;;;;;5204345;28;20434;-47
2023/10/19 08:44:25;;;;;;;26.43;16.67;;;7.00;99.90;;;;;;5202472;28;20446;-50
2023/10/19 08:46:57;;;;;;;31.43;19.00;;;7.10;99.90;;;;;;5203929;28;20566;-49
2023/10/19 08:49:28;;;;;;;29.47;17.70;;;7.10;99.90;;;;;;5212645;28;20935;-48
2023/10/19 08:52:00;;;;;;;32.43;18.07;;;7.10;99.90;;;;;;5193572;28;20438;-50
2023/10/19 08:54:33;;;;;;;36.63;18.97;;;7.20;99.90;;;;;;5208214;28;20473;-48
2023/10/19 08:57:04;;;;;;;33.47;18.50;;;7.20;99.90;;;;;;5208880;28;20467;-49
2023/10/19 08:59:35;;;;;;;31.70;17.17;;;7.30;99.90;;;;;;5210681;28;20442;-49
2023/10/19 09:02:06;;;;;;;35.77;17.67;;;7.30;99.90;;;;;;5214310;28;20457;-50
2023/10/19 09:04:47;;;;;;;30.20;16.80;;;7.40;99.90;;;;;;5213072;28;20559;-52
2023/10/19 09:07:18;;;;;;;31.43;18.70;;;7.40;99.90;;;;;;5211186;28;20477;-48
2023/10/19 09:09:49;;;;;;;28.27;16.60;;;7.50;99.90;;;;;;5206009;28;20445;-50
2023/10/19 09:12:20;;;;;;;28.77;16.80;;;7.60;99.90;;;;;;5208808;28;20176;-50
2023/10/19 09:14:50;;;;;;;29.87;17.30;;;7.60;99.90;;;;;;5209776;28;20445;-49
2023/10/19 09:17:31;;;;;;;28.00;17.13;;;7.70;99.90;;;;;;5208379;28;20490;-47
2023/10/19 09:20:09;;;;;;;31.03;17.80;;;7.70;99.90;;;;;;5206076;28;20179;-49
2023/10/19 09:22:44;;;;;;;41.40;17.77;;;7.70;99.90;;;;;;5194887;28;20425;-48
2023/10/19 09:25:14;;;;;;;27.20;17.00;;;7.70;99.90;;;;;;5205238;28;20495;-50
2023/10/19 09:27:45;;;;;;;27.63;16.70;;;7.70;99.90;;;;;;5205248;28;20473;-48
2023/10/19 09:30:19;;;;;;;26.40;16.80;;;7.70;99.90;;;;;;5204243;28;20210;-50
2023/10/19 09:32:53;;;;;;;30.47;17.90;;;7.70;99.90;;;;;;5210283;28;20190;-49
2023/10/19 09:35:27;;;;;;;28.50;16.23;;;7.80;99.90;;;;;;5202284;28;20511;-48
2023/10/19 09:38:04;;;;;;;26.50;16.73;;;7.70;99.90;;;;;;5209242;28;20502;-48
2023/10/19 09:40:37;;;;;;;27.03;16.50;;;7.80;99.90;;;;;;5206051;28;20538;-48
2023/10/19 09:43:15;;;;;;;34.23;17.70;;;7.90;99.90;;;;;;5203675;28;20469;-48
2023/10/19 09:45:53;;;;;;;34.70;17.93;;;7.90;99.90;;;;;;5204651;28;20441;-50
2023/10/19 09:48:26;;;;;;;32.63;18.73;;;7.90;99.90;;;;;;5201610;28;20547;-50
2023/10/19 09:50:58;;;;;;;33.87;18.43;;;7.90;99.90;;;;;;5205940;28;20497;-49
2023/10/19 09:53:31;;;;;;;27.50;16.77;;;7.80;99.90;;;;;;5207637;28;20434;-48
2023/10/19 09:56:06;;;;;;;30.93;16.90;;;7.80;99.90;;;;;;5190606;28;20442;-48
2023/10/19 09:58:43;;;;;;;35.63;17.60;;;7.80;99.90;;;;;;5204613;28;20964;-49
2023/10/19 10:01:14;;;;;;;31.70;18.57;;;7.80;99.90;;;;;;5206943;28;20941;-49
2023/10/19 10:03:53;;;;;;;35.60;19.63;;;7.80;99.90;;;;;;5206023;28;20430;-50
2023/10/19 10:06:29;;;;;;;30.63;17.50;;;7.80;99.90;;;;;;5203814;28;20468;-48
2023/10/19 10:09:01;;;;;;;31.20;17.60;;;7.90;99.90;;;;;;5208891;28;20531;-50
2023/10/19 10:11:31;;;;;;;33.47;17.40;;;7.90;99.90;;;;;;5206002;28;20431;-48
2023/10/19 10:14:22;;;;;;;34.80;19.20;;;7.90;99.90;;;;;;5209496;28;20430;-51
2023/10/19 10:17:03;;;;;;;29.20;17.40;;;7.90;99.90;;;;;;5203306;28;20278;-49
2023/10/19 10:19:33;;;;;;;26.47;16.10;;;7.90;99.90;;;;;;5205427;28;20436;-48
2023/10/19 10:22:18;;;;;;;24.93;16.53;;;7.90;99.90;;;;;;5203719;28;20438;-49
2023/10/19 10:24:57;;;;;;;27.40;17.43;;;7.90;99.90;;;;;;5202189;28;20586;-51
2023/10/19 10:27:30;;;;;;;26.90;18.73;;;8.00;99.90;;;;;;5202263;28;20477;-49
2023/10/19 10:30:07;;;;;;;29.60;17.80;;;8.00;99.90;;;;;;5209182;28;20942;-49
2023/10/19 10:32:47;;;;;;;33.33;17.10;;;7.90;99.90;;;;;;5208469;28;20445;-51
2023/10/19 10:35:53;;;;;;;26.23;17.50;;;7.90;99.90;;;;;;5206497;28;20427;-51
2023/10/19 10:38:24;;;;;;;32.57;19.17;;;7.80;99.90;;;;;;5182934;28;20485;-49
2023/10/19 10:40:55;;;;;;;37.53;20.07;;;7.80;99.90;;;;;;5211332;28;20517;-49
2023/10/19 10:43:25;;;;;;;36.03;20.03;;;7.60;99.90;;;;;;5209267;28;20298;-49
2023/10/19 10:46:04;;;;;;;40.03;21.20;;;7.70;99.90;;;;;;5210570;28;20590;-50
2023/10/19 10:48:41;;;;;;;40.00;22.50;;;7.60;99.90;;;;;;5206140;28;20548;-49
2023/10/19 10:51:23;;;;;;;42.77;22.57;;;7.40;99.90;;;;;;5216464;28;20450;-52
2023/10/19 10:53:54;;;;;;;41.70;22.23;;;7.40;99.90;;;;;;5209345;28;20492;-51
2023/10/19 10:56:25;;;;;;;47.30;22.37;;;7.30;99.90;;;;;;5207882;28;20533;-52
2023/10/19 10:58:55;;;;;;;40.73;22.60;;;7.30;99.90;;;;;;5209290;28;20878;-51
2023/10/19 11:01:32;;;;;;;37.00;22.87;;;7.20;99.90;;;;;;5202497;28;20188;-52
2023/10/19 11:04:11;;;;;;;36.87;20.40;;;7.30;99.90;;;;;;5208075;28;20266;-52
2023/10/19 11:06:56;;;;;;;47.33;21.47;;;7.30;99.90;;;;;;5204877;28;20462;-52
2023/10/19 11:09:28;;;;;;;36.40;20.33;;;7.30;99.90;;;;;;5206814;28;20814;-52
2023/10/19 11:12:00;;;;;;;36.20;22.60;;;7.30;99.90;;;;;;5206897;28;20427;-51
2023/10/19 11:14:30;;;;;;;40.37;21.43;;;7.30;99.90;;;;;;5208448;28;20581;-51
2023/10/19 11:17:16;;;;;;;40.37;22.03;;;7.30;99.90;;;;;;5209849;28;20988;-52
2023/10/19 11:19:46;;;;;;;37.73;22.23;;;7.30;99.90;;;;;;5207117;28;20237;-50
2023/10/19 11:22:17;;;;;;;39.90;22.67;;;7.20;99.90;;;;;;5203212;28;21050;-51
2023/10/19 11:24:50;;;;;;;43.07;23.90;;;7.20;99.90;;;;;;5202738;28;20184;-50
2023/10/19 11:27:28;;;;;;;41.33;22.43;;;7.20;99.90;;;;;;5211062;28;20800;-50
2023/10/19 11:30:04;;;;;;;41.40;22.23;;;7.20;99.90;;;;;;5209361;28;20434;-51
2023/10/19 11:32:39;;;;;;;41.60;22.63;;;7.20;99.90;;;;;;5206980;28;20894;-50
2023/10/19 11:35:10;;;;;;;46.83;23.17;;;7.20;99.90;;;;;;5208327;28;20430;-51
2023/10/19 11:37:49;;;;;;;39.00;23.63;;;7.20;99.90;;;;;;5207644;28;20458;-51
2023/10/19 11:40:21;;;;;;;38.60;23.43;;;7.20;99.90;;;;;;5210388;28;20473;-51
2023/10/19 11:42:56;;;;;;;41.57;25.37;;;7.10;99.90;;;;;;5202794;28;20437;-51
2023/10/19 11:45:27;;;;;;;40.00;24.67;;;7.20;99.90;;;;;;5204295;28;20801;-51
2023/10/19 11:47:59;;;;;;;47.27;25.77;;;7.20;99.90;;;;;;5203453;28;20565;-50
2023/10/19 11:50:30;;;;;;;45.70;25.90;;;7.20;99.90;;;;;;5205480;28;20438;-51
2023/10/19 11:53:00;;;;;;;48.67;26.53;;;7.20;99.90;;;;;;5210021;28;20439;-50
2023/10/19 11:55:31;;;;;;;48.13;29.67;;;7.00;99.90;;;;;;5210538;28;20234;-50
2023/10/19 11:58:02;;;;;;;45.73;29.40;;;7.10;99.90;;;;;;5209819;28;20194;-51
2023/10/19 12:00:37;;;;;;;51.30;30.70;;;7.00;99.90;;;;;;5207042;28;20274;-52
2023/10/19 12:03:08;;;;;;;60.47;32.63;;;7.00;99.90;;;;;;5206252;28;20175;-51
2023/10/19 12:05:39;;;;;;;69.90;31.00;;;7.00;99.90;;;;;;5204767;28;20454;-51
2023/10/19 12:08:09;;;;;;;55.27;31.17;;;7.00;99.90;;;;;;5209422;28;20214;-51
2023/10/19 12:10:40;;;;;;;54.20;33.53;;;7.00;99.90;;;;;;5204297;28;20195;-51
2023/10/19 12:13:10;;;;;;;76.60;38.33;;;6.90;99.90;;;;;;5207218;28;20249;-50
2023/10/19 12:15:41;;;;;;;73.67;36.17;;;6.90;99.90;;;;;;5205086;28;20175;-51
2023/10/19 12:18:12;;;;;;;75.10;38.67;;;6.90;99.90;;;;;;5203678;28;20286;-50
2023/10/19 12:20:45;;;;;;;79.03;40.07;;;6.80;99.90;;;;;;5205277;28;20604;-50
2023/10/19 12:23:16;;;;;;;73.27;40.13;;;6.80;99.90;;;;;;5208909;28;20667;-50
2023/10/19 12:25:46;;;;;;;71.23;40.37;;;6.90;99.90;;;;;;5207805;28;20441;-50
2023/10/19 12:28:18;;;;;;;89.87;43.67;;;6.90;99.90;;;;;;5204081;28;20361;-51
2023/10/19 12:30:49;;;;;;;70.23;37.80;;;6.90;99.90;;;;;;5205729;28;20179;-51
2023/10/19 12:33:20;;;;;;;95.07;46.17;;;6.80;99.90;;;;;;5202587;28;20438;-50
2023/10/19 12:35:57;;;;;;;90.70;47.17;;;6.80;99.90;;;;;;5201512;28;20473;-50
2023/10/19 12:38:27;;;;;;;97.33;46.13;;;6.80;99.90;;;;;;5207555;28;20206;-51
2023/10/19 12:40:58;;;;;;;91.97;47.43;;;6.90;99.90;;;;;;5209725;28;20443;-51
2023/10/19 12:43:30;;;;;;;100.43;47.80;;;6.80;99.90;;;;;;5204899;28;20183;-50
2023/10/19 12:46:01;;;;;;;91.40;48.47;;;6.80;99.90;;;;;;5204151;28;20180;-51
2023/10/19 12:48:33;;;;;;;101.63;51.43;;;6.80;99.90;;;;;;5202487;28;20506;-50
2023/10/19 12:51:07;;;;;;;102.23;51.63;;;6.80;99.90;;;;;;5199472;28;20447;-51
2023/10/19 12:53:40;;;;;;;113.47;54.80;;;6.80;99.90;;;;;;5209041;28;20426;-51
2023/10/19 12:56:11;;;;;;;108.73;51.57;;;6.70;99.90;;;;;;5204490;28;21004;-51
2023/10/19 12:58:42;;;;;;;112.57;51.50;;;6.70;99.90;;;;;;5204604;28;20447;-51
2023/10/19 13:01:17;;;;;;;100.97;50.67;;;6.70;99.90;;;;;;5220760;28;20234;-50
2023/10/19 13:03:51;;;;;;;120.70;56.23;;;6.70;99.90;;;;;;5205681;28;20433;-50
2023/10/19 13:06:23;;;;;;;103.43;53.40;;;6.70;99.90;;;;;;5205596;28;20526;-51
2023/10/19 13:08:54;;;;;;;138.20;61.60;;;6.70;99.90;;;;;;5205779;28;20481;-50
2023/10/19 13:11:27;;;;;;;124.27;58.60;;;6.70;99.90;;;;;;5208010;28;20425;-51
2023/10/19 13:14:00;;;;;;;135.67;60.30;;;6.70;99.90;;;;;;5204692;28;20176;-50
2023/10/19 13:16:31;;;;;;;141.97;63.33;;;6.60;99.90;;;;;;5204015;28;20444;-50
2023/10/19 13:19:13;;;;;;;129.53;56.87;;;6.70;99.90;;;;;;5201200;28;20457;-51
2023/10/19 13:21:43;;;;;;;177.40;71.80;;;6.60;99.90;;;;;;5205457;28;20259;-51
2023/10/19 13:24:14;;;;;;;145.17;62.30;;;6.60;99.90;;;;;;5209159;28;20440;-50
2023/10/19 13:26:46;;;;;;;142.07;63.67;;;6.60;99.90;;;;;;5206364;28;20196;-49
2023/10/19 13:29:17;;;;;;;146.10;69.07;;;6.60;99.90;;;;;;5206309;28;20969;-50
2023/10/19 13:31:52;;;;;;;165.50;69.57;;;6.50;99.90;;;;;;5204321;28;20449;-51
2023/10/19 13:34:22;;;;;;;129.73;60.87;;;6.60;99.90;;;;;;5205064;28;20230;-51